createdAt,value
2018-07-16T00:01:57.636Z,75.57
2018-07-16T00:05:01.870Z,76.14
2018-07-16T00:08:06.755Z,75.54
2018-07-16T00:11:11.017Z,76.23
2018-07-16T00:14:15.245Z,75.92
2018-07-16T00:17:19.494Z,76.19
2018-07-16T00:20:23.716Z,76.62
2018-07-16T00:23:27.949Z,76.58
2018-07-16T00:26:32.140Z,76.76
2018-07-16T00:29:36.415Z,77.28
2018-07-16T00:32:40.649Z,77.24
2018-07-16T00:35:44.877Z,78.16
2018-07-16T00:38:49.138Z,77.65
2018-07-16T00:41:53.358Z,78.07
2018-07-16T00:44:57.601Z,78.63
2018-07-16T00:48:01.821Z,78.34
2018-07-16T00:51:06.066Z,79.02
2018-07-16T00:54:10.306Z,79.18
2018-07-16T00:57:14.533Z,79.80
2018-07-16T01:00:18.752Z,80.05
2018-07-16T01:03:22.994Z,79.63
2018-07-16T01:06:27.536Z,80.34
2018-07-16T01:09:31.755Z,80.78
2018-07-16T01:12:35.973Z,80.12
2018-07-16T01:15:40.153Z,80.08
2018-07-16T01:18:44.405Z,80.06
2018-07-16T01:21:48.629Z,80.75
2018-07-16T01:24:52.886Z,80.93
2018-07-16T01:27:57.085Z,79.96
2018-07-16T01:31:01.316Z,80.65
2018-07-16T01:34:05.537Z,80.19
2018-07-16T01:37:09.768Z,80.98
2018-07-16T01:40:14.032Z,80.25
2018-07-16T01:43:18.252Z,80.71
2018-07-16T01:46:22.485Z,80.39
2018-07-16T01:49:26.685Z,81.02
2018-07-16T01:52:30.893Z,80.39
2018-07-16T01:55:35.145Z,80.96
2018-07-16T01:58:39.344Z,81.28
2018-07-16T02:01:43.557Z,80.87
2018-07-16T02:04:47.809Z,80.10
2018-07-16T02:07:52.058Z,80.55
2018-07-16T02:10:56.725Z,80.69
2018-07-16T02:14:01.307Z,80.54
2018-07-16T02:17:05.533Z,81.40
2018-07-16T02:20:10.493Z,80.65
2018-07-16T02:23:14.720Z,81.35
2018-07-16T02:26:18.940Z,81.73
2018-07-16T02:29:23.193Z,81.27
2018-07-16T02:32:27.427Z,81.95
2018-07-16T02:35:31.733Z,82.52
2018-07-16T02:38:35.968Z,82.79
2018-07-16T02:41:40.185Z,82.96
2018-07-16T02:44:44.429Z,83.31
2018-07-16T02:47:48.645Z,83.60
2018-07-16T02:50:52.895Z,83.24
2018-07-16T02:53:57.099Z,83.18
2018-07-16T02:57:01.305Z,83.29
2018-07-16T03:00:05.991Z,83.87
2018-07-16T03:03:10.228Z,83.29
2018-07-16T03:06:14.465Z,84.16
2018-07-16T03:09:18.649Z,83.55
2018-07-16T03:12:22.891Z,83.63
2018-07-16T03:15:27.117Z,84.14
2018-07-16T03:18:31.345Z,83.56
2018-07-16T03:21:35.557Z,84.10
2018-07-16T03:24:39.784Z,84.44
2018-07-16T03:27:43.990Z,84.32
2018-07-16T03:30:48.225Z,84.78
2018-07-16T03:33:52.421Z,84.40
2018-07-16T03:36:56.663Z,84.35
2018-07-16T03:40:00.856Z,84.27
2018-07-16T03:43:05.104Z,85.33
2018-07-16T03:46:09.310Z,84.87
2018-07-16T03:49:13.513Z,84.80
2018-07-16T03:52:17.717Z,84.86
2018-07-16T03:55:21.941Z,84.45
2018-07-16T03:58:26.156Z,84.90
2018-07-16T04:01:30.408Z,84.33
2018-07-16T04:04:34.604Z,83.86
2018-07-16T04:07:39.733Z,84.14
2018-07-16T04:10:43.949Z,83.58
2018-07-16T04:13:48.179Z,83.96
2018-07-16T04:16:52.373Z,83.62
2018-07-16T04:19:56.618Z,84.09
2018-07-16T04:23:00.834Z,84.02
2018-07-16T04:26:05.059Z,84.10
2018-07-16T04:29:09.453Z,83.37
2018-07-16T04:32:13.669Z,83.26
2018-07-16T04:35:17.872Z,83.39
2018-07-16T04:38:22.102Z,83.50
2018-07-16T04:41:26.326Z,84.03
2018-07-16T04:44:30.575Z,84.15
2018-07-16T04:47:34.764Z,84.01
2018-07-16T04:50:38.981Z,84.61
2018-07-16T04:53:43.220Z,84.62
2018-07-16T04:56:47.438Z,84.82
2018-07-16T04:59:51.649Z,84.25
2018-07-16T05:02:55.878Z,84.79
2018-07-16T05:06:00.069Z,84.75
2018-07-16T05:09:04.824Z,84.48
2018-07-16T05:12:09.097Z,84.38
2018-07-16T05:15:13.317Z,83.22
2018-07-16T05:18:17.588Z,83.38
2018-07-16T05:21:21.774Z,83.55
2018-07-16T05:24:26.005Z,83.33
2018-07-16T05:27:30.217Z,83.18
2018-07-16T05:30:34.560Z,82.48
2018-07-16T05:33:38.813Z,82.34
2018-07-16T05:36:43.024Z,82.72
2018-07-16T05:39:47.249Z,82.55
2018-07-16T05:42:51.497Z,82.10
2018-07-16T05:45:55.692Z,81.66
2018-07-16T05:48:59.942Z,81.78
2018-07-16T05:52:04.164Z,81.61
2018-07-16T05:55:08.396Z,80.95
2018-07-16T05:58:12.617Z,80.68
2018-07-16T06:01:16.845Z,80.52
2018-07-16T06:04:22.848Z,80.31
2018-07-16T06:07:27.094Z,79.91
2018-07-16T06:10:31.349Z,80.24
2018-07-16T06:13:35.902Z,80.23
2018-07-16T06:16:40.448Z,79.08
2018-07-16T06:19:44.676Z,78.85
2018-07-16T06:22:48.934Z,78.15
2018-07-16T06:25:53.169Z,77.06
2018-07-16T06:28:57.400Z,77.13
2018-07-16T06:32:01.662Z,76.33
2018-07-16T06:35:06.529Z,75.48
2018-07-16T06:38:12.596Z,75.28
2018-07-16T06:41:19.980Z,74.53
2018-07-16T06:44:25.853Z,74.35
2018-07-16T06:47:31.701Z,74.04
2018-07-16T06:50:36.266Z,74.03
2018-07-16T06:53:41.942Z,72.58
2018-07-16T06:56:46.289Z,71.51
2018-07-16T06:59:50.591Z,70.50
2018-07-16T07:02:54.921Z,70.87
2018-07-16T07:05:59.190Z,71.13
2018-07-16T07:09:03.556Z,69.24
2018-07-16T07:12:07.869Z,67.40
2018-07-16T07:15:12.132Z,67.03
2018-07-16T07:18:16.395Z,64.58
2018-07-16T07:21:20.610Z,64.26
2018-07-16T07:24:24.909Z,63.16
2018-07-16T07:27:29.187Z,63.66
2018-07-16T07:30:33.457Z,61.92
2018-07-16T07:33:37.697Z,62.36
2018-07-16T07:36:41.901Z,61.29
2018-07-16T07:39:46.194Z,61.10
2018-07-16T07:42:50.430Z,59.88
2018-07-16T07:45:54.442Z,59.03
2018-07-16T07:48:58.867Z,59.34
2018-07-16T07:52:03.103Z,57.95
2018-07-16T07:55:07.896Z,57.68
2018-07-16T07:58:11.733Z,57.59
2018-07-16T08:01:15.957Z,57.63
2018-07-16T08:04:20.194Z,56.78
2018-07-16T08:07:24.401Z,57.18
2018-07-16T08:10:28.645Z,55.26
2018-07-16T08:13:33.353Z,54.32
2018-07-16T08:16:37.638Z,55.63
2018-07-16T08:19:41.877Z,53.88
2018-07-16T08:22:46.130Z,52.91
2018-07-16T08:25:50.376Z,51.93
2018-07-16T08:28:54.637Z,51.95
2018-07-16T08:31:58.874Z,51.78
2018-07-16T08:35:03.148Z,49.95
2018-07-16T08:38:07.569Z,50.88
2018-07-16T08:41:11.825Z,51.21
2018-07-16T08:44:16.105Z,51.22
2018-07-16T08:47:20.339Z,51.32
2018-07-16T08:50:24.617Z,49.44
2018-07-16T08:53:28.902Z,48.45
2018-07-16T08:56:33.168Z,48.12
2018-07-16T08:59:37.442Z,48.22
2018-07-16T09:02:41.705Z,47.89
2018-07-16T09:05:45.925Z,47.89
2018-07-16T09:08:50.162Z,47.74
2018-07-16T09:11:54.388Z,48.51
2018-07-16T09:14:58.624Z,47.10
2018-07-16T09:18:02.870Z,46.77
2018-07-16T09:21:07.116Z,47.40
2018-07-16T09:24:11.384Z,46.72
2018-07-16T09:27:15.606Z,48.03
2018-07-16T09:30:19.866Z,48.25
2018-07-16T09:33:24.081Z,47.87
2018-07-16T09:36:28.321Z,47.24
2018-07-16T09:39:32.554Z,46.21
2018-07-16T09:42:36.854Z,47.46
2018-07-16T09:45:41.068Z,46.54
2018-07-16T09:48:45.314Z,47.42
2018-07-16T09:51:49.641Z,47.26
2018-07-16T09:54:53.889Z,47.09
2018-07-16T09:57:58.389Z,48.43
2018-07-16T10:01:07.817Z,47.41
2018-07-16T10:04:12.991Z,47.98
2018-07-16T10:07:17.256Z,47.60
2018-07-16T10:10:21.494Z,47.03
2018-07-16T10:13:25.713Z,45.99
2018-07-16T10:16:29.940Z,47.45
2018-07-16T10:19:34.198Z,43.38
2018-07-16T10:22:38.433Z,43.83
2018-07-16T10:25:42.715Z,44.29
2018-07-16T10:28:46.952Z,43.85
2018-07-16T10:31:51.209Z,43.04
2018-07-16T10:34:55.379Z,41.69
2018-07-16T10:37:59.604Z,43.38
2018-07-16T10:41:03.873Z,43.34
2018-07-16T10:44:08.323Z,44.41
2018-07-16T10:47:12.795Z,44.17
2018-07-16T10:50:17.239Z,44.32
2018-07-16T10:53:21.675Z,43.73
2018-07-16T10:56:26.165Z,42.83
2018-07-16T10:59:30.624Z,42.80
2018-07-16T11:02:35.349Z,41.41
2018-07-16T11:05:39.779Z,42.09
2018-07-16T11:08:44.232Z,42.87
2018-07-16T11:11:48.677Z,43.56
2018-07-16T11:14:53.222Z,43.51
2018-07-16T11:17:57.597Z,44.81
2018-07-16T11:21:02.084Z,43.63
2018-07-16T11:24:06.627Z,44.46
2018-07-16T11:27:11.065Z,43.29
2018-07-16T11:30:15.499Z,43.70
2018-07-16T11:33:20.240Z,44.27
2018-07-16T11:36:24.695Z,43.83
2018-07-16T11:39:29.155Z,42.86
2018-07-16T11:42:33.664Z,41.86
2018-07-16T11:45:38.105Z,42.25
2018-07-16T11:48:42.547Z,41.33
2018-07-16T11:51:47.057Z,41.92
2018-07-16T11:54:51.562Z,42.31
2018-07-16T11:57:55.988Z,40.82
2018-07-16T12:01:00.428Z,40.88
2018-07-16T12:04:04.973Z,39.02
2018-07-16T12:07:09.423Z,39.88
2018-07-16T12:10:13.847Z,38.33
2018-07-16T12:13:18.313Z,38.21
2018-07-16T12:16:22.747Z,38.31
2018-07-16T12:19:27.163Z,38.68
2018-07-16T12:22:31.609Z,38.41
2018-07-16T12:25:36.074Z,37.09
2018-07-16T12:28:40.512Z,38.50
2018-07-16T12:31:44.943Z,38.59
2018-07-16T12:34:49.380Z,39.85
2018-07-16T12:37:53.824Z,39.74
2018-07-16T12:40:58.279Z,39.83
2018-07-16T12:44:02.745Z,38.38
2018-07-16T12:47:07.156Z,38.42
2018-07-16T12:50:11.612Z,38.18
2018-07-16T12:53:16.040Z,37.65
2018-07-16T12:56:20.503Z,38.67
2018-07-16T12:59:24.646Z,38.84
2018-07-16T13:02:29.100Z,38.44
2018-07-16T13:05:33.959Z,37.39
2018-07-16T13:08:38.379Z,38.17
2018-07-16T13:11:42.803Z,38.14
2018-07-16T13:14:47.243Z,38.08
2018-07-16T13:17:51.652Z,36.67
2018-07-16T13:20:56.127Z,36.36
2018-07-16T13:24:00.533Z,37.87
2018-07-16T13:27:04.991Z,38.39
2018-07-16T13:30:09.490Z,38.92
2018-07-16T13:33:13.970Z,38.21
2018-07-16T13:36:18.488Z,37.48
2018-07-16T13:39:22.963Z,37.35
2018-07-16T13:42:27.440Z,36.62
2018-07-16T13:45:31.868Z,37.70
2018-07-16T13:48:36.353Z,37.08
2018-07-16T13:51:40.796Z,37.51
2018-07-16T13:54:45.097Z,38.33
2018-07-16T13:57:49.341Z,36.83
2018-07-16T14:00:53.568Z,37.43
2018-07-16T14:03:57.807Z,37.23
2018-07-16T14:07:02.062Z,36.78
2018-07-16T14:10:06.289Z,37.33
2018-07-16T14:13:10.567Z,36.04
2018-07-16T14:16:14.804Z,34.89
2018-07-16T14:19:19.024Z,35.06
2018-07-16T14:22:23.248Z,36.35
2018-07-16T14:25:27.476Z,35.02
2018-07-16T14:28:31.686Z,36.17
2018-07-16T14:31:35.929Z,37.07
2018-07-16T14:34:40.169Z,36.29
2018-07-16T14:37:44.180Z,35.94
2018-07-16T14:40:48.437Z,36.99
2018-07-16T14:43:52.685Z,37.29
2018-07-16T14:46:56.957Z,36.87
2018-07-16T14:50:01.165Z,36.54
2018-07-16T14:53:05.429Z,35.29
2018-07-16T14:56:09.693Z,35.55
2018-07-16T14:59:14.102Z,36.86
2018-07-16T15:02:18.907Z,35.05
2018-07-16T15:05:23.436Z,33.89
2018-07-16T15:08:27.799Z,32.75
2018-07-16T15:11:31.957Z,33.15
2018-07-16T15:14:36.185Z,33.31
2018-07-16T15:17:40.413Z,31.87
2018-07-16T15:20:44.913Z,30.41
2018-07-16T15:23:48.921Z,30.20
2018-07-16T15:26:53.217Z,31.18
2018-07-16T15:29:57.441Z,29.40
2018-07-16T15:33:01.682Z,30.58
2018-07-16T15:36:05.940Z,29.73
2018-07-16T15:39:10.209Z,29.50
2018-07-16T15:42:14.437Z,29.51
2018-07-16T15:45:18.670Z,31.66
2018-07-16T15:48:23.088Z,31.96
2018-07-16T15:51:27.210Z,31.70
2018-07-16T15:54:31.469Z,30.94
2018-07-16T15:57:35.681Z,30.48
2018-07-16T16:00:39.893Z,30.77
2018-07-16T16:03:44.148Z,31.14
2018-07-16T16:06:48.376Z,31.35
2018-07-16T16:09:52.593Z,32.47
2018-07-16T16:12:56.903Z,32.69
2018-07-16T16:16:03.496Z,32.46
2018-07-16T16:19:07.721Z,32.15
2018-07-16T16:22:11.928Z,33.05
2018-07-16T16:25:16.159Z,32.75
2018-07-16T16:28:20.365Z,33.21
2018-07-16T16:31:24.624Z,33.70
2018-07-16T16:34:28.852Z,34.47
2018-07-16T16:37:33.110Z,35.39
2018-07-16T16:40:37.352Z,35.60
2018-07-16T16:43:41.597Z,34.60
2018-07-16T16:46:45.846Z,35.30
2018-07-16T16:49:50.173Z,35.05
2018-07-16T16:52:54.436Z,34.91
2018-07-16T16:55:58.689Z,35.54
2018-07-16T16:59:02.921Z,34.40
2018-07-16T17:02:07.293Z,34.32
2018-07-16T17:05:11.500Z,34.70
2018-07-16T17:08:15.740Z,36.16
2018-07-16T17:11:19.949Z,35.40
2018-07-16T17:14:24.174Z,35.81
2018-07-16T17:17:28.397Z,35.12
2018-07-16T17:20:32.648Z,35.41
2018-07-16T17:23:36.652Z,35.54
2018-07-16T17:26:40.866Z,36.82
2018-07-16T17:29:45.053Z,36.41
2018-07-16T17:32:49.295Z,36.67
2018-07-16T17:35:53.604Z,35.70
2018-07-16T17:38:57.835Z,35.94
2018-07-16T17:42:02.086Z,35.44
2018-07-16T17:45:06.418Z,36.45
2018-07-16T17:48:10.620Z,37.17
2018-07-16T17:51:14.857Z,37.14
2018-07-16T17:54:19.122Z,38.33
2018-07-16T17:57:23.397Z,38.31
2018-07-16T18:00:27.601Z,38.26
2018-07-16T18:03:31.805Z,38.48
2018-07-16T18:06:36.074Z,38.15
2018-07-16T18:09:40.314Z,39.10
2018-07-16T18:12:44.526Z,39.30
2018-07-16T18:15:48.762Z,39.25
2018-07-16T18:18:52.996Z,39.65
2018-07-16T18:21:57.229Z,38.79
2018-07-16T18:25:01.458Z,39.75
2018-07-16T18:28:05.719Z,39.23
2018-07-16T18:31:09.928Z,40.79
2018-07-16T18:34:14.149Z,41.18
2018-07-16T18:37:18.364Z,40.78
2018-07-16T18:40:22.572Z,40.10
2018-07-16T18:43:26.820Z,41.53
2018-07-16T18:46:31.015Z,41.11
2018-07-16T18:49:35.221Z,42.30
2018-07-16T18:52:39.456Z,41.93
2018-07-16T18:55:43.683Z,42.84
2018-07-16T18:58:47.719Z,43.47
2018-07-16T19:01:51.940Z,43.81
2018-07-16T19:04:56.207Z,43.77
2018-07-16T19:08:00.454Z,44.37
2018-07-16T19:11:04.463Z,43.87
2018-07-16T19:14:09.065Z,44.84
2018-07-16T19:17:13.282Z,44.48
2018-07-16T19:20:17.493Z,45.49
2018-07-16T19:23:21.730Z,45.40
2018-07-16T19:26:25.932Z,44.82
2018-07-16T19:29:30.103Z,45.58
2018-07-16T19:32:34.338Z,46.49
2018-07-16T19:35:38.633Z,46.48
2018-07-16T19:38:42.917Z,46.19
2018-07-16T19:41:47.141Z,46.44
2018-07-16T19:44:51.412Z,47.37
2018-07-16T19:47:55.609Z,48.08
2018-07-16T19:50:59.861Z,49.30
2018-07-16T19:54:04.096Z,48.79
2018-07-16T19:57:08.326Z,49.67
2018-07-16T20:00:12.605Z,49.74
2018-07-16T20:03:16.828Z,49.95
2018-07-16T20:06:21.061Z,50.54
2018-07-16T20:09:26.114Z,50.95
2018-07-16T20:12:35.009Z,51.93
2018-07-16T20:15:39.353Z,51.98
2018-07-16T20:18:43.490Z,52.05
2018-07-16T20:21:47.681Z,53.56
2018-07-16T20:24:51.913Z,54.08
2018-07-16T20:27:56.130Z,54.55
2018-07-16T20:31:00.386Z,54.76
2018-07-16T20:34:04.604Z,56.00
2018-07-16T20:37:09.377Z,57.06
2018-07-16T20:40:13.597Z,57.78
2018-07-16T20:43:17.828Z,57.12
2018-07-16T20:46:22.049Z,57.71
2018-07-16T20:49:26.753Z,58.89
2018-07-16T20:52:30.976Z,58.71
2018-07-16T20:55:35.180Z,59.12
2018-07-16T20:58:39.474Z,59.83
2018-07-16T21:01:43.625Z,59.99
2018-07-16T21:04:47.840Z,60.26
2018-07-16T21:07:52.141Z,59.77
2018-07-16T21:10:56.289Z,60.41
2018-07-16T21:14:00.537Z,60.72
2018-07-16T21:17:04.781Z,61.75
2018-07-16T21:20:10.473Z,62.13
2018-07-16T21:23:14.724Z,61.89
2018-07-16T21:26:18.944Z,62.23
2018-07-16T21:29:23.194Z,62.94
2018-07-16T21:32:27.420Z,62.76
2018-07-16T21:35:31.702Z,63.19
2018-07-16T21:38:35.910Z,63.37
2018-07-16T21:41:40.137Z,63.89
2018-07-16T21:44:44.363Z,64.41
2018-07-16T21:47:48.593Z,64.36
2018-07-16T21:50:52.838Z,64.77
2018-07-16T21:53:57.063Z,65.49
2018-07-16T21:57:01.269Z,65.27
2018-07-16T22:00:08.152Z,66.53
2018-07-16T22:03:12.412Z,66.10
2018-07-16T22:06:16.674Z,66.66
2018-07-16T22:09:20.649Z,67.03
2018-07-16T22:12:24.874Z,66.66
2018-07-16T22:15:29.864Z,66.65
2018-07-16T22:18:34.097Z,66.90
2018-07-16T22:21:38.288Z,67.35
2018-07-16T22:24:42.533Z,66.77
2018-07-16T22:27:47.139Z,66.81
2018-07-16T22:30:51.336Z,66.91
2018-07-16T22:33:55.593Z,67.50
2018-07-16T22:36:59.769Z,67.16
2018-07-16T22:40:04.017Z,67.46
2018-07-16T22:43:08.249Z,67.77
2018-07-16T22:46:12.498Z,68.43
2018-07-16T22:49:16.726Z,69.21
2018-07-16T22:52:20.958Z,68.81
2018-07-16T22:55:25.178Z,69.41
2018-07-16T22:58:29.390Z,69.32
2018-07-16T23:01:33.585Z,69.66
2018-07-16T23:04:37.903Z,70.16
2018-07-16T23:07:42.112Z,70.21
2018-07-16T23:10:46.457Z,70.99
2018-07-16T23:13:50.665Z,70.51
2018-07-16T23:16:54.873Z,71.32
2018-07-16T23:19:59.080Z,71.23
2018-07-16T23:23:04.128Z,71.26
2018-07-16T23:26:08.349Z,71.18
2018-07-16T23:29:12.615Z,71.36
2018-07-16T23:32:16.808Z,71.55
2018-07-16T23:35:21.044Z,70.87
2018-07-16T23:38:25.237Z,71.01
2018-07-16T23:41:29.440Z,71.74
2018-07-16T23:44:33.681Z,72.43
2018-07-16T23:47:37.924Z,71.89
2018-07-16T23:50:42.149Z,72.34
2018-07-16T23:53:46.330Z,73.13
2018-07-16T23:56:50.548Z,72.84
2018-07-16T23:59:54.745Z,73.15
